sensor_id;sensor_type;location;lat;lon;timestamp;P1;durP1;ratioP1;P2;durP2;ratioP2
21769;SDS011;11046;49.558;8.674;2022-07-29T00:00:00;4.97;;;2.92;;
21769;SDS011;11046;49.558;8.674;2022-07-29T00:03:01;8.52;;;3.00;;
21769;SDS011;11046;49.558;8.674;2022-07-29T00:06:02;5.30;;;3.28;;
21769;SDS011;11046;49.558;8.674;2022-07-29T00:09:03;6.53;;;3.30;;
21769;SDS011;11046;49.558;8.674;2022-07-29T00:12:04;8.00;;;3.63;;
21769;SDS011;11046;49.558;8.674;2022-07-29T00:15:05;9.73;;;3.10;;
21769;SDS011;11046;49.558;8.674;2022-07-29T00:18:06;8.80;;;3.40;;
21769;SDS011;11046;49.558;8.674;2022-07-29T00:21:07;6.97;;;3.33;;
21769;SDS011;11046;49.558;8.674;2022-07-29T00:24:08;4.13;;;3.00;;
21769;SDS011;11046;49.558;8.674;2022-07-29T00:27:08;4.63;;;3.03;;
21769;SDS011;11046;49.558;8.674;2022-07-29T00:30:09;5.00;;;2.90;;
21769;SDS011;11046;49.558;8.674;2022-07-29T00:33:10;4.28;;;3.25;;
21769;SDS011;11046;49.558;8.674;2022-07-29T00:36:10;6.65;;;3.25;;
21769;SDS011;11046;49.558;8.674;2022-07-29T00:39:11;5.93;;;2.70;;
21769;SDS011;11046;49.558;8.674;2022-07-29T00:42:12;4.53;;;2.80;;
21769;SDS011;11046;49.558;8.674;2022-07-29T00:45:12;6.38;;;3.22;;
21769;SDS011;11046;49.558;8.674;2022-07-29T00:48:14;7.22;;;4.07;;
21769;SDS011;11046;49.558;8.674;2022-07-29T00:51:15;4.65;;;2.80;;
21769;SDS011;11046;49.558;8.674;2022-07-29T00:54:15;6.40;;;3.17;;
21769;SDS011;11046;49.558;8.674;2022-07-29T00:57:16;5.75;;;2.90;;
21769;SDS011;11046;49.558;8.674;2022-07-29T01:00:20;6.78;;;3.03;;
21769;SDS011;11046;49.558;8.674;2022-07-29T01:03:25;6.63;;;3.20;;
21769;SDS011;11046;49.558;8.674;2022-07-29T01:06:26;7.60;;;3.05;;
21769;SDS011;11046;49.558;8.674;2022-07-29T01:09:27;5.40;;;3.08;;
21769;SDS011;11046;49.558;8.674;2022-07-29T01:12:28;6.95;;;3.38;;
21769;SDS011;11046;49.558;8.674;2022-07-29T01:15:34;7.53;;;3.42;;
21769;SDS011;11046;49.558;8.674;2022-07-29T01:18:44;10.48;;;2.92;;
21769;SDS011;11046;49.558;8.674;2022-07-29T01:21:57;4.93;;;3.10;;
21769;SDS011;11046;49.558;8.674;2022-07-29T01:28:35;3.97;;;2.80;;
21769;SDS011;11046;49.558;8.674;2022-07-29T01:31:44;3.08;;;2.70;;
21769;SDS011;11046;49.558;8.674;2022-07-29T01:38:20;4.13;;;3.08;;
21769;SDS011;11046;49.558;8.674;2022-07-29T01:41:23;4.25;;;2.72;;
21769;SDS011;11046;49.558;8.674;2022-07-29T01:44:28;6.63;;;3.20;;
21769;SDS011;11046;49.558;8.674;2022-07-29T01:51:25;4.70;;;3.05;;
21769;SDS011;11046;49.558;8.674;2022-07-29T01:54:40;5.20;;;3.38;;
21769;SDS011;11046;49.558;8.674;2022-07-29T01:57:45;4.07;;;3.28;;
21769;SDS011;11046;49.558;8.674;2022-07-29T02:00:47;4.93;;;3.30;;
21769;SDS011;11046;49.558;8.674;2022-07-29T02:03:49;4.00;;;3.20;;
21769;SDS011;11046;49.558;8.674;2022-07-29T02:06:51;4.90;;;3.13;;
21769;SDS011;11046;49.558;8.674;2022-07-29T02:09:54;6.00;;;3.28;;
21769;SDS011;11046;49.558;8.674;2022-07-29T02:12:57;3.53;;;2.80;;
21769;SDS011;11046;49.558;8.674;2022-07-29T02:15:59;5.50;;;3.30;;
21769;SDS011;11046;49.558;8.674;2022-07-29T02:19:02;3.70;;;3.17;;
21769;SDS011;11046;49.558;8.674;2022-07-29T02:22:04;6.25;;;3.28;;
21769;SDS011;11046;49.558;8.674;2022-07-29T02:25:06;5.05;;;3.17;;
21769;SDS011;11046;49.558;8.674;2022-07-29T02:28:08;3.40;;;2.88;;
21769;SDS011;11046;49.558;8.674;2022-07-29T02:31:10;4.88;;;3.03;;
21769;SDS011;11046;49.558;8.674;2022-07-29T02:34:12;7.38;;;3.00;;
21769;SDS011;11046;49.558;8.674;2022-07-29T02:37:15;5.93;;;3.05;;
21769;SDS011;11046;49.558;8.674;2022-07-29T02:40:16;6.10;;;3.33;;
21769;SDS011;11046;49.558;8.674;2022-07-29T02:43:17;5.45;;;3.10;;
21769;SDS011;11046;49.558;8.674;2022-07-29T02:46:26;4.93;;;3.20;;
21769;SDS011;11046;49.558;8.674;2022-07-29T02:49:32;4.13;;;2.90;;
21769;SDS011;11046;49.558;8.674;2022-07-29T02:52:45;5.53;;;3.13;;
21769;SDS011;11046;49.558;8.674;2022-07-29T02:55:56;3.20;;;2.90;;
21769;SDS011;11046;49.558;8.674;2022-07-29T02:58:58;8.43;;;3.55;;
21769;SDS011;11046;49.558;8.674;2022-07-29T03:02:01;6.25;;;3.05;;
21769;SDS011;11046;49.558;8.674;2022-07-29T03:05:04;8.93;;;3.67;;
21769;SDS011;11046;49.558;8.674;2022-07-29T03:08:08;3.58;;;3.00;;
21769;SDS011;11046;49.558;8.674;2022-07-29T03:11:11;4.13;;;3.20;;
21769;SDS011;11046;49.558;8.674;2022-07-29T03:14:13;7.95;;;3.10;;
21769;SDS011;11046;49.558;8.674;2022-07-29T03:17:15;5.60;;;3.38;;
21769;SDS011;11046;49.558;8.674;2022-07-29T03:20:16;5.70;;;3.25;;
21769;SDS011;11046;49.558;8.674;2022-07-29T03:23:21;8.52;;;2.75;;
21769;SDS011;11046;49.558;8.674;2022-07-29T03:26:23;8.93;;;3.10;;
21769;SDS011;11046;49.558;8.674;2022-07-29T03:29:25;5.50;;;2.90;;
21769;SDS011;11046;49.558;8.674;2022-07-29T03:32:26;3.60;;;2.97;;
21769;SDS011;11046;49.558;8.674;2022-07-29T03:35:26;5.50;;;2.95;;
21769;SDS011;11046;49.558;8.674;2022-07-29T03:38:27;5.63;;;2.83;;
21769;SDS011;11046;49.558;8.674;2022-07-29T03:41:33;6.88;;;3.00;;
21769;SDS011;11046;49.558;8.674;2022-07-29T03:44:36;4.15;;;3.00;;
21769;SDS011;11046;49.558;8.674;2022-07-29T03:47:40;6.10;;;3.08;;
21769;SDS011;11046;49.558;8.674;2022-07-29T03:50:45;4.25;;;3.30;;
21769;SDS011;11046;49.558;8.674;2022-07-29T03:53:46;5.40;;;2.90;;
21769;SDS011;11046;49.558;8.674;2022-07-29T03:56:47;4.97;;;3.25;;
21769;SDS011;11046;49.558;8.674;2022-07-29T03:59:53;5.25;;;3.25;;
21769;SDS011;11046;49.558;8.674;2022-07-29T04:02:54;7.43;;;3.10;;
21769;SDS011;11046;49.558;8.674;2022-07-29T04:06:03;4.95;;;3.13;;
21769;SDS011;11046;49.558;8.674;2022-07-29T04:09:08;7.18;;;3.95;;
21769;SDS011;11046;49.558;8.674;2022-07-29T04:12:09;7.00;;;3.10;;
21769;SDS011;11046;49.558;8.674;2022-07-29T04:15:10;5.05;;;3.25;;
21769;SDS011;11046;49.558;8.674;2022-07-29T04:18:11;5.68;;;3.03;;
21769;SDS011;11046;49.558;8.674;2022-07-29T04:21:12;4.65;;;3.03;;
21769;SDS011;11046;49.558;8.674;2022-07-29T04:24:13;5.30;;;3.33;;
21769;SDS011;11046;49.558;8.674;2022-07-29T04:27:13;7.30;;;3.30;;
21769;SDS011;11046;49.558;8.674;2022-07-29T04:30:14;5.57;;;3.03;;
21769;SDS011;11046;49.558;8.674;2022-07-29T04:33:15;4.88;;;3.08;;
21769;SDS011;11046;49.558;8.674;2022-07-29T04:36:16;4.90;;;2.85;;
21769;SDS011;11046;49.558;8.674;2022-07-29T04:39:17;7.30;;;3.00;;
21769;SDS011;11046;49.558;8.674;2022-07-29T04:42:18;6.03;;;3.20;;
21769;SDS011;11046;49.558;8.674;2022-07-29T04:45:19;5.78;;;3.30;;
21769;SDS011;11046;49.558;8.674;2022-07-29T04:48:20;8.27;;;3.20;;
21769;SDS011;11046;49.558;8.674;2022-07-29T04:51:21;6.93;;;3.92;;
21769;SDS011;11046;49.558;8.674;2022-07-29T04:54:22;6.70;;;3.35;;
21769;SDS011;11046;49.558;8.674;2022-07-29T04:57:23;7.85;;;3.13;;
21769;SDS011;11046;49.558;8.674;2022-07-29T05:00:24;5.15;;;3.35;;
21769;SDS011;11046;49.558;8.674;2022-07-29T05:03:24;8.85;;;3.40;;
21769;SDS011;11046;49.558;8.674;2022-07-29T05:06:25;9.23;;;3.00;;
21769;SDS011;11046;49.558;8.674;2022-07-29T05:09:26;6.22;;;2.90;;
21769;SDS011;11046;49.558;8.674;2022-07-29T05:12:27;9.13;;;3.22;;
21769;SDS011;11046;49.558;8.674;2022-07-29T05:15:27;6.30;;;3.15;;
21769;SDS011;11046;49.558;8.674;2022-07-29T05:18:28;6.97;;;3.55;;
21769;SDS011;11046;49.558;8.674;2022-07-29T05:21:29;6.68;;;3.35;;
21769;SDS011;11046;49.558;8.674;2022-07-29T05:24:30;4.30;;;3.17;;
21769;SDS011;11046;49.558;8.674;2022-07-29T05:27:30;9.27;;;3.60;;
21769;SDS011;11046;49.558;8.674;2022-07-29T05:30:33;5.45;;;3.05;;
21769;SDS011;11046;49.558;8.674;2022-07-29T05:33:33;6.55;;;3.35;;
21769;SDS011;11046;49.558;8.674;2022-07-29T05:36:34;4.82;;;3.17;;
21769;SDS011;11046;49.558;8.674;2022-07-29T05:39:35;3.65;;;3.00;;
21769;SDS011;11046;49.558;8.674;2022-07-29T05:42:35;4.15;;;3.10;;
21769;SDS011;11046;49.558;8.674;2022-07-29T05:45:38;4.72;;;3.10;;
21769;SDS011;11046;49.558;8.674;2022-07-29T05:48:38;8.18;;;3.65;;
21769;SDS011;11046;49.558;8.674;2022-07-29T05:51:39;7.55;;;3.17;;
21769;SDS011;11046;49.558;8.674;2022-07-29T05:54:40;4.15;;;2.88;;
21769;SDS011;11046;49.558;8.674;2022-07-29T05:57:40;6.75;;;2.97;;
21769;SDS011;11046;49.558;8.674;2022-07-29T06:00:43;4.93;;;3.13;;
21769;SDS011;11046;49.558;8.674;2022-07-29T06:03:44;6.10;;;3.03;;
21769;SDS011;11046;49.558;8.674;2022-07-29T06:06:47;3.45;;;3.15;;
21769;SDS011;11046;49.558;8.674;2022-07-29T06:09:48;6.93;;;3.53;;
21769;SDS011;11046;49.558;8.674;2022-07-29T06:12:49;5.85;;;3.13;;
21769;SDS011;11046;49.558;8.674;2022-07-29T06:15:49;7.85;;;3.70;;
21769;SDS011;11046;49.558;8.674;2022-07-29T06:18:50;10.32;;;4.22;;
21769;SDS011;11046;49.558;8.674;2022-07-29T06:21:51;11.68;;;3.80;;
21769;SDS011;11046;49.558;8.674;2022-07-29T06:24:52;25.58;;;4.72;;
21769;SDS011;11046;49.558;8.674;2022-07-29T06:27:52;23.75;;;4.60;;
21769;SDS011;11046;49.558;8.674;2022-07-29T06:30:53;18.35;;;4.47;;
21769;SDS011;11046;49.558;8.674;2022-07-29T06:33:54;27.17;;;4.88;;
21769;SDS011;11046;49.558;8.674;2022-07-29T06:36:54;21.60;;;4.60;;
21769;SDS011;11046;49.558;8.674;2022-07-29T06:39:55;14.43;;;4.88;;
21769;SDS011;11046;49.558;8.674;2022-07-29T06:43:14;19.42;;;4.60;;
21769;SDS011;11046;49.558;8.674;2022-07-29T06:46:15;19.00;;;4.10;;
21769;SDS011;11046;49.558;8.674;2022-07-29T06:49:17;12.88;;;4.03;;
21769;SDS011;11046;49.558;8.674;2022-07-29T06:52:18;29.63;;;5.28;;
21769;SDS011;11046;49.558;8.674;2022-07-29T06:55:19;40.08;;;5.88;;
21769;SDS011;11046;49.558;8.674;2022-07-29T06:58:20;20.92;;;4.63;;
21769;SDS011;11046;49.558;8.674;2022-07-29T07:01:28;14.63;;;4.22;;
21769;SDS011;11046;49.558;8.674;2022-07-29T07:04:29;7.55;;;3.63;;
21769;SDS011;11046;49.558;8.674;2022-07-29T07:07:30;7.82;;;3.38;;
21769;SDS011;11046;49.558;8.674;2022-07-29T07:10:31;4.82;;;3.50;;
21769;SDS011;11046;49.558;8.674;2022-07-29T07:13:32;5.43;;;3.25;;
21769;SDS011;11046;49.558;8.674;2022-07-29T07:16:34;7.60;;;3.97;;
21769;SDS011;11046;49.558;8.674;2022-07-29T07:19:35;4.80;;;3.10;;
21769;SDS011;11046;49.558;8.674;2022-07-29T07:22:35;12.98;;;3.80;;
21769;SDS011;11046;49.558;8.674;2022-07-29T07:25:36;8.27;;;3.75;;
21769;SDS011;11046;49.558;8.674;2022-07-29T07:28:37;9.45;;;3.88;;
21769;SDS011;11046;49.558;8.674;2022-07-29T07:31:38;6.70;;;3.78;;
21769;SDS011;11046;49.558;8.674;2022-07-29T07:34:42;4.63;;;3.70;;
21769;SDS011;11046;49.558;8.674;2022-07-29T07:37:43;6.47;;;3.70;;
21769;SDS011;11046;49.558;8.674;2022-07-29T07:40:44;7.78;;;3.70;;
21769;SDS011;11046;49.558;8.674;2022-07-29T07:43:46;7.70;;;3.65;;
21769;SDS011;11046;49.558;8.674;2022-07-29T07:46:47;8.60;;;4.25;;
21769;SDS011;11046;49.558;8.674;2022-07-29T07:49:48;6.38;;;3.50;;
21769;SDS011;11046;49.558;8.674;2022-07-29T07:52:54;5.90;;;3.78;;
21769;SDS011;11046;49.558;8.674;2022-07-29T07:55:57;5.95;;;3.63;;
21769;SDS011;11046;49.558;8.674;2022-07-29T07:58:58;6.15;;;3.70;;
21769;SDS011;11046;49.558;8.674;2022-07-29T08:01:59;6.78;;;3.60;;
21769;SDS011;11046;49.558;8.674;2022-07-29T08:05:00;7.15;;;3.70;;
21769;SDS011;11046;49.558;8.674;2022-07-29T08:08:01;7.97;;;3.78;;
21769;SDS011;11046;49.558;8.674;2022-07-29T08:11:02;5.65;;;3.58;;
21769;SDS011;11046;49.558;8.674;2022-07-29T08:14:03;7.57;;;3.63;;
21769;SDS011;11046;49.558;8.674;2022-07-29T08:17:04;6.75;;;3.60;;
21769;SDS011;11046;49.558;8.674;2022-07-29T08:20:05;5.18;;;3.90;;
21769;SDS011;11046;49.558;8.674;2022-07-29T08:23:06;6.45;;;3.88;;
21769;SDS011;11046;49.558;8.674;2022-07-29T08:26:09;10.38;;;4.18;;
21769;SDS011;11046;49.558;8.674;2022-07-29T08:29:10;7.07;;;3.83;;
21769;SDS011;11046;49.558;8.674;2022-07-29T08:32:11;6.97;;;4.10;;
21769;SDS011;11046;49.558;8.674;2022-07-29T08:35:12;10.73;;;3.80;;
21769;SDS011;11046;49.558;8.674;2022-07-29T08:38:12;6.13;;;4.18;;
21769;SDS011;11046;49.558;8.674;2022-07-29T08:41:14;6.95;;;3.92;;
21769;SDS011;11046;49.558;8.674;2022-07-29T08:44:15;8.07;;;4.20;;
21769;SDS011;11046;49.558;8.674;2022-07-29T08:47:17;7.85;;;4.03;;
21769;SDS011;11046;49.558;8.674;2022-07-29T08:50:18;8.05;;;4.57;;
21769;SDS011;11046;49.558;8.674;2022-07-29T08:53:18;5.15;;;4.40;;
21769;SDS011;11046;49.558;8.674;2022-07-29T08:56:20;5.78;;;4.35;;
21769;SDS011;11046;49.558;8.674;2022-07-29T08:59:22;17.23;;;4.93;;
21769;SDS011;11046;49.558;8.674;2022-07-29T09:02:25;4.78;;;4.00;;
21769;SDS011;11046;49.558;8.674;2022-07-29T09:05:29;8.00;;;3.58;;
21769;SDS011;11046;49.558;8.674;2022-07-29T09:08:32;6.70;;;3.90;;
21769;SDS011;11046;49.558;8.674;2022-07-29T09:11:34;5.93;;;3.92;;
21769;SDS011;11046;49.558;8.674;2022-07-29T09:14:35;5.25;;;3.80;;
21769;SDS011;11046;49.558;8.674;2022-07-29T09:17:39;10.50;;;4.05;;
21769;SDS011;11046;49.558;8.674;2022-07-29T09:20:51;4.57;;;3.55;;
21769;SDS011;11046;49.558;8.674;2022-07-29T09:24:12;6.45;;;4.00;;
21769;SDS011;11046;49.558;8.674;2022-07-29T09:27:25;8.52;;;4.40;;
21769;SDS011;11046;49.558;8.674;2022-07-29T09:30:26;7.88;;;4.00;;
21769;SDS011;11046;49.558;8.674;2022-07-29T09:33:33;9.82;;;4.40;;
21769;SDS011;11046;49.558;8.674;2022-07-29T09:36:44;6.63;;;4.40;;
21769;SDS011;11046;49.558;8.674;2022-07-29T09:39:46;7.35;;;4.35;;
21769;SDS011;11046;49.558;8.674;2022-07-29T09:42:47;5.70;;;4.25;;
21769;SDS011;11046;49.558;8.674;2022-07-29T09:45:49;6.97;;;4.53;;
21769;SDS011;11046;49.558;8.674;2022-07-29T09:49:09;8.23;;;4.05;;
21769;SDS011;11046;49.558;8.674;2022-07-29T09:52:11;4.78;;;3.95;;
21769;SDS011;11046;49.558;8.674;2022-07-29T09:55:12;6.43;;;4.40;;
21769;SDS011;11046;49.558;8.674;2022-07-29T09:58:17;17.73;;;5.75;;
21769;SDS011;11046;49.558;8.674;2022-07-29T10:01:27;6.25;;;4.50;;
21769;SDS011;11046;49.558;8.674;2022-07-29T10:04:46;8.80;;;4.63;;
21769;SDS011;11046;49.558;8.674;2022-07-29T10:10:51;6.00;;;4.03;;
21769;SDS011;11046;49.558;8.674;2022-07-29T10:14:08;5.38;;;4.05;;
21769;SDS011;11046;49.558;8.674;2022-07-29T10:17:09;7.10;;;4.18;;
21769;SDS011;11046;49.558;8.674;2022-07-29T10:20:10;6.53;;;4.28;;
21769;SDS011;11046;49.558;8.674;2022-07-29T10:23:11;6.75;;;4.30;;
21769;SDS011;11046;49.558;8.674;2022-07-29T10:26:12;5.03;;;4.03;;
21769;SDS011;11046;49.558;8.674;2022-07-29T10:29:14;11.40;;;4.00;;
21769;SDS011;11046;49.558;8.674;2022-07-29T10:42:25;10.48;;;4.35;;
21769;SDS011;11046;49.558;8.674;2022-07-29T10:45:29;6.82;;;3.75;;
21769;SDS011;11046;49.558;8.674;2022-07-29T10:48:30;6.60;;;4.25;;
21769;SDS011;11046;49.558;8.674;2022-07-29T10:54:50;7.07;;;4.03;;
21769;SDS011;11046;49.558;8.674;2022-07-29T11:01:28;6.75;;;4.20;;
21769;SDS011;11046;49.558;8.674;2022-07-29T11:11:33;6.28;;;3.97;;
21769;SDS011;11046;49.558;8.674;2022-07-29T11:21:00;6.70;;;4.60;;
21769;SDS011;11046;49.558;8.674;2022-07-29T11:24:13;6.20;;;3.92;;
21769;SDS011;11046;49.558;8.674;2022-07-29T11:27:17;12.93;;;4.30;;
21769;SDS011;11046;49.558;8.674;2022-07-29T11:30:20;7.75;;;4.22;;
21769;SDS011;11046;49.558;8.674;2022-07-29T11:33:28;11.27;;;4.43;;
21769;SDS011;11046;49.558;8.674;2022-07-29T11:36:29;7.18;;;4.80;;
21769;SDS011;11046;49.558;8.674;2022-07-29T11:39:30;7.55;;;4.47;;
21769;SDS011;11046;49.558;8.674;2022-07-29T11:45:45;7.68;;;4.20;;
21769;SDS011;11046;49.558;8.674;2022-07-29T11:48:46;6.60;;;4.20;;
21769;SDS011;11046;49.558;8.674;2022-07-29T11:51:52;7.93;;;4.57;;
21769;SDS011;11046;49.558;8.674;2022-07-29T11:54:53;10.20;;;4.45;;
21769;SDS011;11046;49.558;8.674;2022-07-29T11:57:58;10.05;;;4.78;;
21769;SDS011;11046;49.558;8.674;2022-07-29T12:01:00;8.75;;;4.35;;
21769;SDS011;11046;49.558;8.674;2022-07-29T12:04:05;8.30;;;4.20;;
21769;SDS011;11046;49.558;8.674;2022-07-29T12:07:06;9.02;;;4.18;;
21769;SDS011;11046;49.558;8.674;2022-07-29T12:10:07;9.68;;;4.43;;
21769;SDS011;11046;49.558;8.674;2022-07-29T12:13:08;9.38;;;4.90;;
21769;SDS011;11046;49.558;8.674;2022-07-29T12:16:10;7.82;;;4.18;;
21769;SDS011;11046;49.558;8.674;2022-07-29T12:19:11;8.45;;;3.90;;
21769;SDS011;11046;49.558;8.674;2022-07-29T12:22:11;6.88;;;4.45;;
21769;SDS011;11046;49.558;8.674;2022-07-29T12:25:13;11.63;;;5.13;;
21769;SDS011;11046;49.558;8.674;2022-07-29T12:28:18;7.28;;;4.20;;
21769;SDS011;11046;49.558;8.674;2022-07-29T12:31:21;6.13;;;4.15;;
21769;SDS011;11046;49.558;8.674;2022-07-29T12:34:23;6.93;;;4.10;;
21769;SDS011;11046;49.558;8.674;2022-07-29T12:37:26;7.00;;;4.38;;
21769;SDS011;11046;49.558;8.674;2022-07-29T12:40:27;9.30;;;4.32;;
21769;SDS011;11046;49.558;8.674;2022-07-29T12:43:27;7.75;;;3.80;;
21769;SDS011;11046;49.558;8.674;2022-07-29T12:46:29;9.45;;;4.32;;
21769;SDS011;11046;49.558;8.674;2022-07-29T12:49:30;5.43;;;4.07;;
21769;SDS011;11046;49.558;8.674;2022-07-29T12:52:32;9.48;;;4.28;;
21769;SDS011;11046;49.558;8.674;2022-07-29T12:55:47;7.40;;;4.00;;
21769;SDS011;11046;49.558;8.674;2022-07-29T12:58:51;6.28;;;4.30;;
21769;SDS011;11046;49.558;8.674;2022-07-29T13:01:52;4.63;;;3.97;;
21769;SDS011;11046;49.558;8.674;2022-07-29T13:04:59;5.10;;;3.63;;
21769;SDS011;11046;49.558;8.674;2022-07-29T13:08:11;9.45;;;3.72;;
21769;SDS011;11046;49.558;8.674;2022-07-29T13:11:27;5.65;;;3.60;;
21769;SDS011;11046;49.558;8.674;2022-07-29T13:14:32;6.35;;;3.33;;
21769;SDS011;11046;49.558;8.674;2022-07-29T13:17:40;5.03;;;3.33;;
21769;SDS011;11046;49.558;8.674;2022-07-29T13:20:43;3.92;;;3.28;;
21769;SDS011;11046;49.558;8.674;2022-07-29T13:23:44;6.68;;;3.00;;
21769;SDS011;11046;49.558;8.674;2022-07-29T13:26:45;9.70;;;3.72;;
21769;SDS011;11046;49.558;8.674;2022-07-29T13:29:46;3.88;;;3.08;;
21769;SDS011;11046;49.558;8.674;2022-07-29T13:32:47;3.67;;;3.20;;
21769;SDS011;11046;49.558;8.674;2022-07-29T13:35:48;4.60;;;3.13;;
21769;SDS011;11046;49.558;8.674;2022-07-29T13:38:50;10.60;;;4.07;;
21769;SDS011;11046;49.558;8.674;2022-07-29T13:41:51;7.18;;;3.00;;
21769;SDS011;11046;49.558;8.674;2022-07-29T13:44:52;6.38;;;2.72;;
21769;SDS011;11046;49.558;8.674;2022-07-29T13:47:53;3.60;;;3.30;;
21769;SDS011;11046;49.558;8.674;2022-07-29T13:50:54;5.43;;;3.20;;
21769;SDS011;11046;49.558;8.674;2022-07-29T13:53:54;6.55;;;3.17;;
21769;SDS011;11046;49.558;8.674;2022-07-29T13:56:55;5.22;;;3.00;;
21769;SDS011;11046;49.558;8.674;2022-07-29T13:59:56;5.20;;;3.20;;
21769;SDS011;11046;49.558;8.674;2022-07-29T14:02:57;8.43;;;3.20;;
21769;SDS011;11046;49.558;8.674;2022-07-29T14:05:57;8.40;;;3.20;;
21769;SDS011;11046;49.558;8.674;2022-07-29T14:09:00;5.70;;;2.72;;
21769;SDS011;11046;49.558;8.674;2022-07-29T14:12:02;6.35;;;3.28;;
21769;SDS011;11046;49.558;8.674;2022-07-29T14:15:03;7.82;;;3.00;;
21769;SDS011;11046;49.558;8.674;2022-07-29T14:18:04;5.90;;;3.50;;
21769;SDS011;11046;49.558;8.674;2022-07-29T14:21:04;6.70;;;3.22;;
21769;SDS011;11046;49.558;8.674;2022-07-29T14:24:05;8.18;;;3.45;;
21769;SDS011;11046;49.558;8.674;2022-07-29T14:27:06;4.78;;;3.30;;
21769;SDS011;11046;49.558;8.674;2022-07-29T14:30:08;8.32;;;3.10;;
21769;SDS011;11046;49.558;8.674;2022-07-29T14:33:09;7.20;;;3.33;;
21769;SDS011;11046;49.558;8.674;2022-07-29T14:36:09;6.75;;;3.35;;
21769;SDS011;11046;49.558;8.674;2022-07-29T14:39:10;5.90;;;3.53;;
21769;SDS011;11046;49.558;8.674;2022-07-29T14:42:11;8.25;;;3.38;;
21769;SDS011;11046;49.558;8.674;2022-07-29T14:45:13;7.80;;;3.47;;
21769;SDS011;11046;49.558;8.674;2022-07-29T14:48:14;5.90;;;3.67;;
21769;SDS011;11046;49.558;8.674;2022-07-29T14:51:15;5.47;;;3.40;;
21769;SDS011;11046;49.558;8.674;2022-07-29T14:54:15;8.25;;;3.72;;
21769;SDS011;11046;49.558;8.674;2022-07-29T14:57:16;4.57;;;3.58;;
21769;SDS011;11046;49.558;8.674;2022-07-29T15:00:17;8.77;;;3.63;;
21769;SDS011;11046;49.558;8.674;2022-07-29T15:03:18;5.05;;;3.40;;
21769;SDS011;11046;49.558;8.674;2022-07-29T15:06:19;4.45;;;3.17;;
21769;SDS011;11046;49.558;8.674;2022-07-29T15:09:19;6.63;;;3.20;;
21769;SDS011;11046;49.558;8.674;2022-07-29T15:12:20;5.45;;;3.53;;
21769;SDS011;11046;49.558;8.674;2022-07-29T15:15:24;5.38;;;3.28;;
21769;SDS011;11046;49.558;8.674;2022-07-29T15:18:24;7.70;;;3.50;;
21769;SDS011;11046;49.558;8.674;2022-07-29T15:21:25;5.60;;;3.42;;
21769;SDS011;11046;49.558;8.674;2022-07-29T15:24:26;4.07;;;3.67;;
21769;SDS011;11046;49.558;8.674;2022-07-29T15:27:26;7.88;;;3.70;;
21769;SDS011;11046;49.558;8.674;2022-07-29T15:30:27;10.43;;;3.42;;
21769;SDS011;11046;49.558;8.674;2022-07-29T15:33:30;8.95;;;3.30;;
21769;SDS011;11046;49.558;8.674;2022-07-29T15:36:30;5.22;;;3.10;;
21769;SDS011;11046;49.558;8.674;2022-07-29T15:39:31;7.32;;;3.42;;
21769;SDS011;11046;49.558;8.674;2022-07-29T15:42:32;4.97;;;3.20;;
21769;SDS011;11046;49.558;8.674;2022-07-29T15:45:40;4.63;;;3.28;;
21769;SDS011;11046;49.558;8.674;2022-07-29T15:49:02;8.85;;;3.05;;
21769;SDS011;11046;49.558;8.674;2022-07-29T15:52:06;6.50;;;3.00;;
21769;SDS011;11046;49.558;8.674;2022-07-29T15:55:08;8.93;;;3.05;;
21769;SDS011;11046;49.558;8.674;2022-07-29T15:58:09;8.60;;;3.30;;
21769;SDS011;11046;49.558;8.674;2022-07-29T16:01:10;7.97;;;3.25;;
21769;SDS011;11046;49.558;8.674;2022-07-29T16:04:10;3.45;;;2.75;;
21769;SDS011;11046;49.558;8.674;2022-07-29T16:07:11;4.30;;;3.20;;
21769;SDS011;11046;49.558;8.674;2022-07-29T16:10:12;4.43;;;3.20;;
21769;SDS011;11046;49.558;8.674;2022-07-29T16:13:13;10.07;;;3.35;;
21769;SDS011;11046;49.558;8.674;2022-07-29T16:16:13;5.40;;;3.00;;
21769;SDS011;11046;49.558;8.674;2022-07-29T16:19:15;6.97;;;3.28;;
21769;SDS011;11046;49.558;8.674;2022-07-29T16:22:16;5.65;;;3.63;;
21769;SDS011;11046;49.558;8.674;2022-07-29T16:25:17;8.50;;;3.45;;
21769;SDS011;11046;49.558;8.674;2022-07-29T16:28:17;10.48;;;3.40;;
21769;SDS011;11046;49.558;8.674;2022-07-29T16:31:18;7.88;;;3.58;;
21769;SDS011;11046;49.558;8.674;2022-07-29T16:34:21;8.13;;;3.80;;
21769;SDS011;11046;49.558;8.674;2022-07-29T16:37:22;7.57;;;3.75;;
21769;SDS011;11046;49.558;8.674;2022-07-29T16:40:23;5.65;;;4.00;;
21769;SDS011;11046;49.558;8.674;2022-07-29T16:43:24;10.30;;;4.20;;
21769;SDS011;11046;49.558;8.674;2022-07-29T16:46:25;14.18;;;5.35;;
21769;SDS011;11046;49.558;8.674;2022-07-29T16:49:26;13.80;;;5.40;;
21769;SDS011;11046;49.558;8.674;2022-07-29T16:52:27;6.53;;;5.00;;
21769;SDS011;11046;49.558;8.674;2022-07-29T16:55:28;11.18;;;5.55;;
21769;SDS011;11046;49.558;8.674;2022-07-29T16:58:29;11.43;;;5.72;;
21769;SDS011;11046;49.558;8.674;2022-07-29T17:01:30;13.55;;;6.18;;
21769;SDS011;11046;49.558;8.674;2022-07-29T17:04:30;10.07;;;6.13;;
21769;SDS011;11046;49.558;8.674;2022-07-29T17:07:31;12.32;;;5.78;;
21769;SDS011;11046;49.558;8.674;2022-07-29T17:10:32;14.05;;;6.15;;
21769;SDS011;11046;49.558;8.674;2022-07-29T17:13:33;10.88;;;5.82;;
21769;SDS011;11046;49.558;8.674;2022-07-29T17:16:33;8.55;;;5.95;;
21769;SDS011;11046;49.558;8.674;2022-07-29T17:19:34;10.05;;;5.72;;
21769;SDS011;11046;49.558;8.674;2022-07-29T17:22:35;7.25;;;5.65;;
21769;SDS011;11046;49.558;8.674;2022-07-29T17:25:36;8.63;;;5.47;;
21769;SDS011;11046;49.558;8.674;2022-07-29T17:28:37;9.75;;;6.35;;
21769;SDS011;11046;49.558;8.674;2022-07-29T17:31:38;10.10;;;7.13;;
21769;SDS011;11046;49.558;8.674;2022-07-29T17:34:39;9.85;;;6.18;;
21769;SDS011;11046;49.558;8.674;2022-07-29T17:37:41;9.90;;;6.90;;
21769;SDS011;11046;49.558;8.674;2022-07-29T17:40:42;7.93;;;6.47;;
21769;SDS011;11046;49.558;8.674;2022-07-29T17:43:42;10.60;;;6.60;;
21769;SDS011;11046;49.558;8.674;2022-07-29T17:46:43;8.57;;;7.20;;
21769;SDS011;11046;49.558;8.674;2022-07-29T17:49:44;14.38;;;7.40;;
21769;SDS011;11046;49.558;8.674;2022-07-29T17:52:45;11.18;;;6.72;;
21769;SDS011;11046;49.558;8.674;2022-07-29T17:55:46;9.95;;;7.28;;
21769;SDS011;11046;49.558;8.674;2022-07-29T17:58:48;14.98;;;7.18;;
21769;SDS011;11046;49.558;8.674;2022-07-29T18:01:49;10.85;;;6.60;;
21769;SDS011;11046;49.558;8.674;2022-07-29T18:04:50;16.52;;;8.02;;
21769;SDS011;11046;49.558;8.674;2022-07-29T18:07:50;10.98;;;7.20;;
21769;SDS011;11046;49.558;8.674;2022-07-29T18:10:51;12.93;;;7.10;;
21769;SDS011;11046;49.558;8.674;2022-07-29T18:13:52;11.70;;;6.90;;
21769;SDS011;11046;49.558;8.674;2022-07-29T18:16:52;20.05;;;17.65;;
21769;SDS011;11046;49.558;8.674;2022-07-29T18:19:53;12.00;;;8.73;;
21769;SDS011;11046;49.558;8.674;2022-07-29T18:22:54;11.07;;;7.95;;
21769;SDS011;11046;49.558;8.674;2022-07-29T18:25:54;38.13;;;26.75;;
21769;SDS011;11046;49.558;8.674;2022-07-29T18:28:55;10.35;;;7.20;;
21769;SDS011;11046;49.558;8.674;2022-07-29T18:31:56;33.80;;;17.90;;
21769;SDS011;11046;49.558;8.674;2022-07-29T18:34:58;30.92;;;21.55;;
21769;SDS011;11046;49.558;8.674;2022-07-29T18:38:04;22.17;;;12.73;;
21769;SDS011;11046;49.558;8.674;2022-07-29T18:41:05;11.70;;;8.70;;
21769;SDS011;11046;49.558;8.674;2022-07-29T18:44:05;9.23;;;5.80;;
21769;SDS011;11046;49.558;8.674;2022-07-29T18:47:08;7.32;;;5.80;;
21769;SDS011;11046;49.558;8.674;2022-07-29T18:50:09;10.18;;;7.65;;
21769;SDS011;11046;49.558;8.674;2022-07-29T18:53:10;8.60;;;6.60;;
21769;SDS011;11046;49.558;8.674;2022-07-29T18:56:11;10.07;;;6.60;;
21769;SDS011;11046;49.558;8.674;2022-07-29T18:59:11;9.95;;;6.10;;
21769;SDS011;11046;49.558;8.674;2022-07-29T19:02:15;7.57;;;5.70;;